Terminal Aerodrome Forecast
Issued by NWS Billings, MT

Home | Current Version | Previous Version | Text Only | Print | Product List | Glossary Off
Versions: 1 2 3 4 5 6 7 8 9 10 11 12 13 14 15 16 17 18 19 20 21 22 23 24 25 26

161
FTUS45 KBYZ 221731
TAFMLS
TAF
KMLS 221731Z 2218/2318 23010KT P6SM BKN090
     FM222000 29010KT P6SM SCT150
     FM230000 VRB06KT P6SM SCT050 OVC120
     FM230900 VRB06KT P6SM VCSH SCT025 BKN050 OVC100
     FM231300 36008KT 6SM -RA BKN025 OVC050=

USA.gov is the U.S. government's official web portal to all federal, state and local government web resources and services.